Time;durP1;ratioP1;P1;durP2;ratioP2;P2;SDS_P1;SDS_P2;PMS_P1;PMS_P2;Temp;Humidity;BMP_temperature;BMP_pressure;BME280_temperature;BME280_humidity;BME280_pressure;Samples;Min_cycle;Max_cycle;Signal;HPM_P1;HPM_P2
2021/11/11 00:00:22;;;;;;;19.33;16.40;;;;;;;6.25;76.81;96115.53;5073190;28;20228;-87
2021/11/11 00:02:50;;;;;;;19.57;17.47;;;;;;;6.21;76.40;96106.53;5072984;28;20201;-86
2021/11/11 00:05:16;;;;;;;18.97;16.53;;;;;;;6.24;76.34;96093.47;5075661;28;20197;-83
2021/11/11 00:07:43;;;;;;;19.50;17.20;;;;;;;6.25;76.50;96089.97;5077174;28;20219;-85
2021/11/11 00:10:11;;;;;;;19.70;16.43;;;;;;;6.31;75.89;96083.50;5072972;28;20228;-84
2021/11/11 00:12:38;;;;;;;23.03;17.50;;;;;;;6.28;75.38;96079.47;5073474;28;20610;-85
2021/11/11 00:15:08;;;;;;;21.80;17.47;;;;;;;6.20;75.96;96087.00;5073163;28;20205;-85
2021/11/11 00:17:36;;;;;;;20.83;17.00;;;;;;;6.19;76.42;96078.53;5072749;28;20201;-85
2021/11/11 00:20:04;;;;;;;18.80;16.80;;;;;;;6.19;76.37;96083.66;5072363;28;20225;-84
2021/11/11 00:22:30;;;;;;;19.70;17.40;;;;;;;6.24;75.96;96088.34;5072193;28;20201;-85
2021/11/11 00:24:56;;;;;;;20.20;16.43;;;;;;;6.27;76.05;96082.16;5074050;28;20212;-86
2021/11/11 00:27:23;;;;;;;20.37;17.10;;;;;;;6.30;75.76;96089.56;5073444;28;20205;-83
2021/11/11 00:29:49;;;;;;;18.90;16.60;;;;;;;6.31;75.34;96088.63;5075448;28;20311;-84
2021/11/11 00:32:16;;;;;;;18.07;16.10;;;;;;;6.19;76.06;96093.88;5076305;28;20201;-84
2021/11/11 00:34:45;;;;;;;20.37;16.53;;;;;;;6.23;76.06;96102.09;5076346;28;20205;-85
2021/11/11 00:37:12;;;;;;;19.60;15.63;;;;;;;6.29;75.69;96093.06;5075794;28;20200;-84
2021/11/11 00:39:39;;;;;;;20.23;16.00;;;;;;;6.18;75.10;96094.81;5075589;28;20223;-84
2021/11/11 00:42:05;;;;;;;20.23;16.50;;;;;;;6.16;75.79;96094.16;5076125;28;20205;-83
2021/11/11 00:44:32;;;;;;;18.93;16.43;;;;;;;6.17;75.39;96088.09;5075874;28;20612;-83
2021/11/11 00:46:59;;;;;;;17.30;15.43;;;;;;;6.21;75.35;96089.44;5075779;28;20204;-85
2021/11/11 00:49:26;;;;;;;21.10;16.57;;;;;;;6.13;75.22;96096.19;5075647;28;20224;-86
2021/11/11 00:51:53;;;;;;;19.47;16.20;;;;;;;6.01;75.76;96092.94;5072522;28;20672;-83
2021/11/11 00:54:21;;;;;;;18.67;16.13;;;;;;;5.97;76.01;96096.72;5055381;28;20209;-84
2021/11/11 00:56:48;;;;;;;18.37;15.47;;;;;;;5.99;76.39;96089.72;5056683;28;20209;-85
2021/11/11 00:59:15;;;;;;;19.67;15.90;;;;;;;6.01;76.64;96084.47;5055265;28;20271;-86
2021/11/11 01:01:41;;;;;;;21.13;16.00;;;;;;;5.98;76.62;96070.22;5057862;28;20201;-86
2021/11/11 01:04:07;;;;;;;17.50;14.80;;;;;;;5.99;76.24;96084.63;5075612;28;20197;-85
2021/11/11 01:06:34;;;;;;;17.67;14.77;;;;;;;6.03;75.91;96069.81;5075742;28;20572;-87
2021/11/11 01:09:02;;;;;;;19.27;15.50;;;;;;;5.88;76.63;96077.06;5075493;28;20266;-84
2021/11/11 01:11:28;;;;;;;18.70;14.87;;;;;;;5.94;76.17;96073.22;5075756;28;20201;-86
2021/11/11 01:13:55;;;;;;;20.63;14.80;;;;;;;5.98;76.04;96092.41;5075621;28;20614;-83
2021/11/11 01:16:22;;;;;;;18.77;15.30;;;;;;;6.00;75.71;96086.22;5075682;28;20216;-85
2021/11/11 01:18:48;;;;;;;16.00;14.20;;;;;;;6.04;75.36;96089.31;5075258;28;20196;-85
2021/11/11 01:21:15;;;;;;;16.63;14.00;;;;;;;6.01;75.30;96102.38;5075590;28;20224;-85
2021/11/11 01:23:42;;;;;;;15.90;14.00;;;;;;;5.88;75.36;96105.19;5075379;28;20236;-82
2021/11/11 01:26:10;;;;;;;17.43;14.77;;;;;;;5.88;75.57;96110.28;5075426;28;20232;-85
2021/11/11 01:28:37;;;;;;;16.73;14.17;;;;;;;5.85;75.09;96111.38;5075145;28;20209;-83
2021/11/11 01:31:04;;;;;;;19.27;14.37;;;;;;;5.85;74.98;96102.88;5075947;28;20256;-85
2021/11/11 01:33:32;;;;;;;15.93;14.17;;;;;;;5.89;74.33;96112.75;5075365;28;20295;-85
2021/11/11 01:35:59;;;;;;;17.10;14.77;;;;;;;5.81;74.53;96102.34;5074689;28;20606;-85
2021/11/11 01:38:25;;;;;;;16.00;14.17;;;;;;;5.73;75.13;96096.31;5074079;28;20664;-86
2021/11/11 01:40:52;;;;;;;16.97;14.70;;;;;;;5.73;74.94;96093.75;5074385;28;20220;-82
2021/11/11 01:43:20;;;;;;;15.63;13.40;;;;;;;5.75;74.91;96099.53;5068086;28;20201;-83
2021/11/11 01:45:47;;;;;;;16.30;13.80;;;;;;;5.79;74.77;96082.97;5054319;28;20580;-85
2021/11/11 01:48:16;;;;;;;14.97;13.37;;;;;;;5.76;74.90;96078.97;5053769;28;20676;-85
2021/11/11 01:50:43;;;;;;;16.13;13.60;;;;;;;5.68;75.14;96083.94;5053695;28;20229;-85
2021/11/11 01:53:12;;;;;;;16.93;13.73;;;;;;;5.65;75.08;96084.19;5054337;28;20603;-84
2021/11/11 01:55:39;;;;;;;16.37;13.70;;;;;;;5.58;75.48;96082.31;5053952;28;20201;-85
2021/11/11 01:58:06;;;;;;;16.03;13.57;;;;;;;5.56;75.58;96079.91;5053940;28;20208;-85
2021/11/11 02:00:36;;;;;;;14.70;12.37;;;;;;;5.62;75.44;96075.97;5054195;28;20226;-86
2021/11/11 02:03:05;;;;;;;15.60;12.93;;;;;;;5.65;75.17;96075.72;5067727;28;20211;-83
2021/11/11 02:05:34;;;;;;;14.90;13.07;;;;;;;5.63;74.58;96057.16;5073802;28;20827;-84
2021/11/11 02:08:00;;;;;;;15.43;12.63;;;;;;;5.62;74.75;96068.31;5073862;28;20204;-85
2021/11/11 02:10:30;;;;;;;15.07;13.47;;;;;;;5.69;74.42;96056.63;5073486;28;20221;-83
2021/11/11 02:12:57;;;;;;;14.87;13.27;;;;;;;5.70;74.37;96051.41;5073547;28;20201;-83
2021/11/11 02:15:24;;;;;;;16.50;12.67;;;;;;;5.69;74.05;96046.41;5073286;28;20246;-84
2021/11/11 02:17:53;;;;;;;14.90;12.63;;;;;;;5.71;74.10;96050.44;5073317;28;20205;-84
2021/11/11 02:20:23;;;;;;;15.03;12.23;;;;;;;5.68;73.38;96050.72;5073373;28;20801;-84
2021/11/11 02:22:49;;;;;;;15.07;12.70;;;;;;;5.67;73.32;96056.75;5072894;28;20591;-83
2021/11/11 02:25:19;;;;;;;14.23;12.83;;;;;;;5.65;73.32;96045.06;5072732;28;20201;-85
2021/11/11 02:27:47;;;;;;;14.87;12.17;;;;;;;5.65;73.93;96043.31;5073427;28;20208;-86
2021/11/11 02:30:16;;;;;;;15.40;12.53;;;;;;;5.65;74.01;96039.97;5072936;28;20587;-82
2021/11/11 02:32:45;;;;;;;13.87;12.37;;;;;;;5.60;73.41;96044.66;5073228;28;20612;-85
2021/11/11 02:35:12;;;;;;;13.97;12.53;;;;;;;5.56;73.70;96046.69;5073258;28;20232;-85
2021/11/11 02:37:40;;;;;;;14.27;12.83;;;;;;;5.39;73.40;96060.09;5062674;28;20200;-83
2021/11/11 02:40:10;;;;;;;16.30;12.57;;;;;;;5.31;74.23;96067.63;5073304;28;20271;-85
2021/11/11 02:42:38;;;;;;;13.10;11.70;;;;;;;5.32;74.28;96059.03;5073155;28;20200;-85
2021/11/11 02:45:07;;;;;;;14.20;11.70;;;;;;;5.37;73.58;96054.34;5073688;28;20227;-82
2021/11/11 02:47:34;;;;;;;14.13;12.00;;;;;;;5.43;73.87;96049.50;5073143;28;20205;-84
2021/11/11 02:50:01;;;;;;;15.07;12.53;;;;;;;5.26;73.96;96044.22;5071974;28;20228;-84
2021/11/11 02:52:27;;;;;;;15.83;12.27;;;;;;;5.30;73.72;96043.84;5073643;28;20209;-85
2021/11/11 02:54:55;;;;;;;13.07;11.77;;;;;;;5.28;73.40;96045.72;5072847;28;20258;-85
2021/11/11 02:57:24;;;;;;;13.60;12.20;;;;;;;5.29;73.27;96043.97;5073067;28;20205;-85
2021/11/11 02:59:53;;;;;;;13.33;11.70;;;;;;;5.38;73.40;96040.63;5073358;28;20220;-85
2021/11/11 03:02:22;;;;;;;13.70;12.07;;;;;;;5.37;73.41;96046.69;5073076;28;20208;-83
2021/11/11 03:04:49;;;;;;;12.90;11.50;;;;;;;5.37;72.63;96055.16;5073029;28;20201;-85
2021/11/11 03:07:16;;;;;;;13.43;12.00;;;;;;;5.31;72.61;96049.75;5073062;28;20230;-85
2021/11/11 03:09:42;;;;;;;14.80;11.97;;;;;;;5.21;72.37;96060.75;5072883;28;20252;-83
2021/11/11 03:12:11;;;;;;;13.83;11.53;;;;;;;5.25;72.51;96063.84;5072904;28;20197;-85
2021/11/11 03:14:38;;;;;;;12.83;11.50;;;;;;;5.19;72.94;96070.31;5072654;28;20200;-83
2021/11/11 03:17:06;;;;;;;16.23;11.80;;;;;;;5.22;72.82;96061.56;5072721;28;20201;-85
2021/11/11 03:19:32;;;;;;;16.03;11.17;;;;;;;5.20;73.21;96060.88;5072930;28;20225;-83
2021/11/11 03:21:59;;;;;;;12.80;11.30;;;;;;;5.23;72.99;96060.63;5073283;28;20192;-85
2021/11/11 03:24:25;;;;;;;15.40;11.57;;;;;;;5.28;72.69;96060.22;5072009;28;20755;-83
2021/11/11 03:26:52;;;;;;;13.43;10.90;;;;;;;5.27;72.79;96056.06;5072554;28;20201;-85
2021/11/11 03:29:20;;;;;;;12.77;10.90;;;;;;;5.26;72.71;96064.66;5072429;28;20224;-85
2021/11/11 03:31:46;;;;;;;13.07;10.60;;;;;;;5.19;72.47;96075.41;5072680;28;20228;-81
2021/11/11 03:34:13;;;;;;;15.23;11.73;;;;;;;4.95;73.67;96074.13;5072979;28;20196;-84
2021/11/11 03:36:39;;;;;;;13.10;10.90;;;;;;;4.93;74.04;96076.81;5072117;28;20205;-85
2021/11/11 03:39:06;;;;;;;14.87;11.33;;;;;;;4.97;73.99;96088.38;5072565;28;20200;-84
2021/11/11 03:41:33;;;;;;;12.40;11.10;;;;;;;4.94;73.98;96085.28;5072593;28;20197;-84
2021/11/11 03:43:59;;;;;;;13.20;11.17;;;;;;;4.95;74.00;96085.16;5072095;28;20208;-85
2021/11/11 03:46:27;;;;;;;14.13;11.80;;;;;;;4.81;74.98;96083.72;5072265;28;20201;-83
2021/11/11 03:48:54;;;;;;;14.83;11.20;;;;;;;4.63;75.59;96087.00;5072735;28;20203;-85
2021/11/11 03:51:21;;;;;;;15.27;11.87;;;;;;;4.70;75.74;96088.94;5072799;28;20235;-84
2021/11/11 03:53:49;;;;;;;12.83;11.43;;;;;;;4.77;75.37;96090.06;5072549;28;20201;-85
2021/11/11 03:56:16;;;;;;;15.23;11.73;;;;;;;4.82;75.13;96085.34;5072448;28;20228;-85
2021/11/11 03:58:45;;;;;;;13.73;11.00;;;;;;;4.91;74.87;96080.44;5072280;28;20205;-83
2021/11/11 04:01:11;;;;;;;13.83;11.77;;;;;;;4.89;75.08;96090.75;5072493;28;20213;-84
2021/11/11 04:03:39;;;;;;;13.07;11.13;;;;;;;4.96;75.29;96086.75;5075899;28;20609;-85
2021/11/11 04:06:06;;;;;;;13.77;11.63;;;;;;;4.94;75.28;96078.44;5076220;28;20212;-83
2021/11/11 04:08:33;;;;;;;12.80;11.17;;;;;;;4.96;75.24;96083.41;5061112;28;20217;-85
2021/11/11 04:11:00;;;;;;;16.53;11.77;;;;;;;4.99;75.30;96085.69;5056056;28;20237;-85
2021/11/11 04:13:28;;;;;;;14.17;12.00;;;;;;;4.98;75.47;96086.63;5055656;28;20584;-81
2021/11/11 04:15:56;;;;;;;13.33;11.93;;;;;;;4.92;75.65;96084.59;5056773;28;20206;-85
2021/11/11 04:18:22;;;;;;;12.80;11.47;;;;;;;4.82;76.13;96093.00;5056288;28;20300;-85
2021/11/11 04:20:52;;;;;;;12.17;10.90;;;;;;;4.83;76.12;96092.06;5056250;28;20221;-85
2021/11/11 04:23:19;;;;;;;15.40;11.23;;;;;;;4.81;76.60;96088.06;5055588;28;20220;-85
2021/11/11 04:25:51;;;;;;;12.63;10.83;;;;;;;4.85;76.11;96089.38;5055480;28;20213;-85
2021/11/11 04:28:21;;;;;;;12.17;10.10;;;;;;;4.88;76.14;96093.44;5060606;28;20847;-84
2021/11/11 04:30:51;;;;;;;12.33;11.03;;;;;;;4.89;75.54;96095.06;5075423;28;20232;-83
2021/11/11 04:33:18;;;;;;;13.33;10.60;;;;;;;4.88;75.92;96098.53;5075758;28;20201;-83
2021/11/11 04:35:49;;;;;;;12.20;10.17;;;;;;;4.80;75.79;96096.66;5075779;28;20231;-85
2021/11/11 04:38:25;;;;;;;12.50;11.07;;;;;;;4.80;75.76;96092.34;5075558;28;20207;-85
2021/11/11 04:43:47;;;;;;;14.33;10.60;;;;;;;4.91;75.93;96095.72;5073207;28;20656;-83
2021/11/11 04:46:36;;;;;;;13.87;10.53;;;;;;;4.98;76.09;96107.03;5074891;28;20205;-85
2021/11/11 04:49:42;;;;;;;12.33;10.57;;;;;;;5.03;75.88;96110.00;5075381;28;20292;-84
2021/11/11 04:52:17;;;;;;;14.00;11.60;;;;;;;5.04;75.71;96106.50;5070664;28;20221;-85
2021/11/11 05:03:16;;;;;;;12.83;10.57;;;;;;;4.85;76.84;96105.50;5062777;28;20208;-83
2021/11/11 05:05:43;;;;;;;14.30;11.37;;;;;;;4.76;78.14;96098.63;5074754;28;20207;-82
2021/11/11 05:08:10;;;;;;;13.37;11.73;;;;;;;4.66;78.39;96105.44;5074545;28;20200;-84
2021/11/11 05:10:38;;;;;;;14.63;11.13;;;;;;;4.74;78.56;96104.81;5075347;28;20229;-84
2021/11/11 05:13:05;;;;;;;14.73;10.67;;;;;;;4.80;78.74;96102.56;5073643;28;20279;-84
2021/11/11 05:15:32;;;;;;;12.80;10.87;;;;;;;4.89;77.94;96105.25;5074831;28;20200;-82
2021/11/11 05:17:58;;;;;;;12.97;11.33;;;;;;;4.92;77.82;96108.38;5073930;28;20729;-84
2021/11/11 05:20:25;;;;;;;14.93;10.97;;;;;;;4.89;78.09;96111.16;5074892;28;20221;-84
2021/11/11 05:22:52;;;;;;;14.60;11.00;;;;;;;4.93;78.55;96115.09;5074039;28;20248;-84
2021/11/11 05:25:18;;;;;;;14.27;11.40;;;;;;;5.01;86.53;96115.22;5073290;28;20671;-83
2021/11/11 05:27:46;;;;;;;13.80;9.63;;;;;;;5.54;94.39;96114.97;5074211;28;20579;-83
2021/11/11 05:30:16;;;;;;;14.53;10.10;;;;;;;5.69;79.76;96108.53;5069271;28;20217;-82
2021/11/11 05:32:42;;;;;;;13.43;10.40;;;;;;;5.64;77.76;96113.22;5074990;28;20225;-84
2021/11/11 05:35:11;;;;;;;13.13;10.57;;;;;;;5.50;78.17;96119.53;5075249;28;20625;-85
2021/11/11 05:37:37;;;;;;;16.13;11.03;;;;;;;5.42;79.06;96116.00;5074858;28;20583;-84
2021/11/11 05:40:06;;;;;;;13.17;10.50;;;;;;;5.35;78.96;96125.97;5069529;28;20281;-85
2021/11/11 05:42:33;;;;;;;13.30;10.97;;;;;;;5.29;79.39;96131.59;5065174;28;20208;-84
2021/11/11 05:45:01;;;;;;;16.57;10.97;;;;;;;5.18;79.79;96129.94;5065435;28;20201;-85
2021/11/11 05:47:28;;;;;;;13.03;10.37;;;;;;;5.16;80.52;96139.47;5074382;28;20189;-85
2021/11/11 05:49:55;;;;;;;15.03;10.30;;;;;;;5.15;81.19;96142.97;5074466;28;20228;-86
2021/11/11 05:52:21;;;;;;;14.63;10.63;;;;;;;5.16;80.25;96146.31;5074852;28;20216;-85
2021/11/11 05:54:48;;;;;;;15.17;10.90;;;;;;;5.20;79.91;96143.38;5074031;28;20209;-83
2021/11/11 05:57:15;;;;;;;12.87;10.43;;;;;;;5.13;79.93;96144.84;5073893;28;20196;-84
2021/11/11 05:59:41;;;;;;;11.90;9.70;;;;;;;5.13;79.71;96152.50;5064718;28;20599;-84
2021/11/11 06:02:12;;;;;;;12.43;10.03;;;;;;;4.95;80.24;96146.38;5073192;28;20229;-83
2021/11/11 06:04:39;;;;;;;16.73;14.17;;;;;;;5.02;79.33;96137.25;5073284;28;20197;-83
2021/11/11 06:07:06;;;;;;;20.17;15.20;;;;;;;5.04;78.18;96143.03;5073692;28;20197;-84
2021/11/11 06:09:36;;;;;;;15.37;11.77;;;;;;;5.12;77.75;96137.31;5073620;28;20220;-83
2021/11/11 06:12:04;;;;;;;11.83;9.33;;;;;;;5.11;77.25;96146.72;5072871;28;20383;-83
2021/11/11 06:14:30;;;;;;;8.63;7.73;;;;;;;5.15;77.06;96142.97;5073064;28;20690;-84
2021/11/11 06:16:57;;;;;;;10.03;8.33;;;;;;;5.17;76.87;96137.75;5072345;28;20264;-82
2021/11/11 06:19:27;;;;;;;8.63;7.73;;;;;;;5.18;76.91;96136.81;5072434;28;20227;-83
2021/11/11 06:21:54;;;;;;;9.90;8.10;;;;;;;5.20;76.91;96137.44;5072588;28;20680;-84
2021/11/11 06:24:21;;;;;;;10.00;7.47;;;;;;;5.19;76.89;96148.63;5072668;28;20297;-84
2021/11/11 06:26:48;;;;;;;8.57;7.33;;;;;;;5.17;77.04;96147.94;5072060;28;20363;-84
2021/11/11 06:29:14;;;;;;;9.97;7.13;;;;;;;5.13;76.80;96142.28;5072962;28;20200;-84
2021/11/11 06:31:41;;;;;;;7.70;6.90;;;;;;;5.16;76.62;96148.88;5072548;28;20228;-85
2021/11/11 06:34:08;;;;;;;8.00;7.17;;;;;;;5.17;76.54;96153.06;5072800;28;21042;-85
2021/11/11 06:36:36;;;;;;;10.03;6.90;;;;;;;5.25;76.26;96153.19;5072867;28;20618;-85
2021/11/11 06:39:04;;;;;;;9.13;7.23;;;;;;;5.22;75.77;96163.66;5072139;28;20292;-85
2021/11/11 06:41:31;;;;;;;9.43;7.17;;;;;;;5.25;75.73;96160.84;5072707;28;20193;-85
2021/11/11 06:43:57;;;;;;;8.97;7.47;;;;;;;5.20;75.05;96162.97;5073437;28;20207;-84
2021/11/11 06:46:24;;;;;;;8.57;7.63;;;;;;;5.14;75.70;96158.41;5072971;28;20209;-84
2021/11/11 06:48:51;;;;;;;12.03;8.07;;;;;;;5.19;75.46;96159.66;5072352;28;20242;-84
2021/11/11 06:51:18;;;;;;;11.80;7.63;;;;;;;5.34;75.66;96164.38;5071506;28;20236;-84
2021/11/11 06:53:46;;;;;;;8.63;7.73;;;;;;;5.41;75.27;96152.69;5071456;28;20193;-85
2021/11/11 06:56:14;;;;;;;9.43;8.50;;;;;;;5.44;74.74;96157.53;5072937;28;20227;-86
2021/11/11 06:58:40;;;;;;;8.07;7.27;;;;;;;5.50;74.01;96164.69;5074713;28;20189;-85
2021/11/11 07:01:07;;;;;;;8.57;7.67;;;;;;;5.59;73.79;96165.63;5073491;28;20221;-85
2021/11/11 07:03:35;;;;;;;8.40;7.13;;;;;;;5.65;73.67;96165.94;5072838;28;20212;-85
2021/11/11 07:06:01;;;;;;;9.30;8.00;;;;;;;5.76;73.71;96177.81;5072375;28;20201;-84
2021/11/11 07:08:28;;;;;;;8.80;7.90;;;;;;;5.83;73.87;96169.44;5072697;28;20197;-84
2021/11/11 07:10:56;;;;;;;8.87;7.43;;;;;;;5.96;73.51;96176.09;5072662;28;20252;-85
2021/11/11 07:13:23;;;;;;;7.77;6.60;;;;;;;6.08;73.44;96169.91;5073114;28;20206;-82
2021/11/11 07:15:50;;;;;;;9.40;6.87;;;;;;;6.24;73.02;96147.97;5073787;28;20208;-82
2021/11/11 07:18:17;;;;;;;8.27;6.57;;;;;;;6.33;72.89;96156.59;5072997;28;20247;-84
2021/11/11 07:20:46;;;;;;;10.03;6.97;;;;;;;6.49;72.40;96151.72;5072356;28;20227;-85
2021/11/11 07:23:14;;;;;;;9.97;6.70;;;;;;;6.52;72.06;96169.34;5072336;28;20247;-85
2021/11/11 07:25:41;;;;;;;10.03;6.27;;;;;;;6.50;71.65;96168.69;5073858;28;20193;-84
2021/11/11 07:28:08;;;;;;;6.90;6.20;;;;;;;6.80;86.58;96175.34;5072317;28;20199;-83
2021/11/11 07:30:35;;;;;;;7.73;6.47;;;;;;;7.16;75.00;96178.06;5072008;28;20240;-83
2021/11/11 07:33:02;;;;;;;9.10;6.13;;;;;;;7.20;70.00;96181.97;5072412;28;20224;-83
2021/11/11 07:35:29;;;;;;;8.60;7.10;;;;;;;7.18;70.03;96189.78;5072397;28;20204;-84
2021/11/11 07:37:55;;;;;;;9.67;6.80;;;;;;;7.15;69.92;96209.75;5068900;28;20204;-84
2021/11/11 07:40:25;;;;;;;10.03;6.47;;;;;;;7.14;69.81;96203.81;5076498;28;20274;-84
2021/11/11 07:42:52;;;;;;;8.10;7.00;;;;;;;7.13;70.30;96202.19;5076373;28;20200;-85
2021/11/11 07:45:25;;;;;;;8.20;7.40;;;;;;;7.15;70.45;96196.94;5076972;28;20196;-81
2021/11/11 07:47:53;;;;;;;7.13;6.43;;;;;;;7.25;69.94;96198.53;5076692;28;20196;-85
2021/11/11 07:50:20;;;;;;;7.40;6.60;;;;;;;7.36;69.90;96197.53;5076227;28;20225;-82
2021/11/11 07:52:47;;;;;;;7.83;7.03;;;;;;;7.41;69.37;96192.00;5076905;28;20228;-84
2021/11/11 07:55:13;;;;;;;7.43;6.60;;;;;;;7.42;69.43;96191.03;5075777;28;20212;-83
2021/11/11 07:57:40;;;;;;;8.13;6.30;;;;;;;7.57;68.96;96194.75;5075634;28;20205;-84
2021/11/11 08:00:12;;;;;;;8.60;6.27;;;;;;;7.74;68.51;96195.72;5075236;28;20231;-84
2021/11/11 08:02:42;;;;;;;8.57;6.57;;;;;;;7.93;67.65;96196.41;5075436;28;20512;-84
2021/11/11 08:05:10;;;;;;;7.60;6.60;;;;;;;8.13;67.07;96203.97;5075224;28;20596;-81
2021/11/11 08:07:36;;;;;;;11.03;6.23;;;;;;;8.30;67.01;96203.97;5074994;28;20197;-84
2021/11/11 08:10:04;;;;;;;9.20;6.00;;;;;;;8.44;65.76;96201.91;5074579;28;20314;-85
2021/11/11 08:12:31;;;;;;;6.60;6.00;;;;;;;8.53;65.97;96195.84;5075535;28;20308;-85
2021/11/11 08:14:58;;;;;;;7.50;6.20;;;;;;;8.62;65.66;96205.25;5074963;28;20588;-83
2021/11/11 08:17:25;;;;;;;7.37;6.20;;;;;;;8.65;65.57;96197.25;5075476;28;20201;-83
2021/11/11 08:19:55;;;;;;;7.00;5.80;;;;;;;8.61;65.65;96190.81;5075298;28;20220;-84
2021/11/11 08:22:23;;;;;;;7.87;6.13;;;;;;;8.64;65.47;96186.19;5074887;28;20197;-85
2021/11/11 08:24:49;;;;;;;11.00;5.40;;;;;;;8.64;65.70;96183.63;5074626;28;20225;-83
2021/11/11 08:27:17;;;;;;;8.73;5.90;;;;;;;8.75;65.00;96190.25;5074889;28;20200;-85
2021/11/11 08:29:44;;;;;;;9.00;6.30;;;;;;;8.85;65.08;96195.31;5074331;28;20228;-83
2021/11/11 08:32:11;;;;;;;6.27;5.67;;;;;;;8.95;65.04;96185.72;5075094;28;20291;-85
2021/11/11 08:34:38;;;;;;;7.90;5.67;;;;;;;9.04;64.69;96186.59;5070311;28;20288;-84
2021/11/11 08:37:06;;;;;;;7.10;5.70;;;;;;;9.10;64.74;96176.50;5057029;28;20220;-84
2021/11/11 08:39:33;;;;;;;6.47;5.57;;;;;;;9.22;64.93;96182.19;5072120;28;20599;-85
2021/11/11 08:41:59;;;;;;;9.33;5.47;;;;;;;9.25;65.25;96177.53;5072664;28;20193;-84
2021/11/11 08:44:26;;;;;;;6.63;5.40;;;;;;;9.35;64.40;96173.09;5054498;28;20598;-83
2021/11/11 08:46:53;;;;;;;8.70;6.10;;;;;;;9.45;64.48;96178.09;5066210;28;20193;-84
2021/11/11 08:49:20;;;;;;;8.97;5.90;;;;;;;9.52;64.22;96176.53;5085236;28;20216;-85
2021/11/11 08:51:49;;;;;;;9.40;6.47;;;;;;;9.63;64.65;96185.72;5081988;28;20262;-84
2021/11/11 08:54:18;;;;;;;6.97;5.97;;;;;;;9.83;64.31;96183.69;5075337;28;20223;-84
2021/11/11 08:56:48;;;;;;;6.90;6.10;;;;;;;9.89;65.00;96186.44;5075013;28;20216;-84
2021/11/11 08:59:15;;;;;;;11.07;6.87;;;;;;;10.11;64.56;96177.31;5074856;28;20680;-82
2021/11/11 09:01:42;;;;;;;7.57;6.87;;;;;;;10.05;63.88;96177.94;5074761;28;20224;-85
2021/11/11 09:04:09;;;;;;;8.20;6.90;;;;;;;10.18;64.18;96174.94;5074528;28;20204;-84
2021/11/11 09:06:35;;;;;;;7.80;7.07;;;;;;;10.31;63.94;96176.09;5068498;28;20198;-84
2021/11/11 09:09:01;;;;;;;10.57;7.43;;;;;;;10.26;64.50;96165.47;5061758;28;20683;-83
2021/11/11 09:11:30;;;;;;;8.27;7.47;;;;;;;10.38;64.48;96171.13;5074585;28;20599;-85
2021/11/11 09:13:56;;;;;;;10.73;7.07;;;;;;;10.55;64.01;96169.34;5074626;28;20196;-84
2021/11/11 09:16:25;;;;;;;9.13;7.57;;;;;;;10.71;64.11;96164.97;5074890;28;20197;-85
2021/11/11 09:18:51;;;;;;;9.07;7.67;;;;;;;10.62;64.70;96171.09;5074144;28;20219;-86
2021/11/11 09:21:18;;;;;;;8.10;7.30;;;;;;;10.76;64.28;96166.28;5066443;28;20735;-82
2021/11/11 09:23:46;;;;;;;11.07;7.87;;;;;;;10.84;64.27;96163.66;5064120;28;20287;-84
2021/11/11 09:26:12;;;;;;;9.13;8.17;;;;;;;11.00;63.68;96159.28;5054063;28;20209;-83
2021/11/11 09:28:41;;;;;;;9.70;7.57;;;;;;;11.21;63.23;96166.47;5068509;28;20204;-81
2021/11/11 09:31:09;;;;;;;9.23;8.33;;;;;;;11.22;62.95;96172.44;5062292;28;20217;-82
2021/11/11 09:33:36;;;;;;;9.23;8.00;;;;;;;11.32;62.37;96167.91;5074291;28;20636;-82
2021/11/11 09:36:03;;;;;;;16.00;8.10;;;;;;;11.22;62.56;96165.50;5073477;28;20208;-83
2021/11/11 09:38:29;;;;;;;10.70;8.43;;;;;;;11.36;62.20;96169.97;5070172;28;20212;-84
2021/11/11 09:40:56;;;;;;;13.20;8.73;;;;;;;11.13;62.45;96170.88;5070274;28;20231;-84
2021/11/11 09:43:25;;;;;;;10.33;8.90;;;;;;;11.17;63.19;96174.69;5071359;28;20204;-84
2021/11/11 09:45:53;;;;;;;9.37;8.20;;;;;;;11.40;62.63;96171.25;5073418;28;20197;-84
2021/11/11 09:48:19;;;;;;;10.93;8.03;;;;;;;11.64;62.09;96177.28;5071260;28;20227;-82
2021/11/11 09:50:47;;;;;;;10.30;8.63;;;;;;;11.78;61.69;96158.53;5073356;28;20297;-85
2021/11/11 09:53:17;;;;;;;10.17;8.37;;;;;;;11.84;61.48;96157.06;5074107;28;20243;-83
2021/11/11 09:58:43;;;;;;;9.43;8.50;;;;;;;11.88;60.87;96159.13;5072089;28;20220;-85
2021/11/11 10:01:14;;;;;;;10.80;9.23;;;;;;;12.01;61.06;96166.31;5072977;28;20227;-81
2021/11/11 10:03:43;;;;;;;9.17;8.27;;;;;;;12.05;61.19;96159.84;5073066;28;20200;-84
2021/11/11 10:06:10;;;;;;;9.87;8.87;;;;;;;11.98;60.73;96161.47;5072915;28;20578;-85
2021/11/11 10:08:39;;;;;;;9.67;8.67;;;;;;;12.05;61.39;96163.22;5073708;28;20590;-82
2021/11/11 10:11:10;;;;;;;10.57;8.93;;;;;;;12.16;60.24;96166.38;5071306;28;20746;-83
2021/11/11 10:13:37;;;;;;;14.50;9.23;;;;;;;12.27;60.09;96160.81;5064511;28;20627;-85
2021/11/11 10:16:08;;;;;;;10.77;8.50;;;;;;;12.24;59.95;96154.22;5053500;28;20197;-82
2021/11/11 10:18:43;;;;;;;10.60;8.90;;;;;;;12.13;60.26;96153.78;5067834;28;20208;-85
2021/11/11 10:21:26;;;;;;;9.77;8.77;;;;;;;12.08;60.47;96156.91;5072982;28;20804;-84
2021/11/11 10:23:52;;;;;;;11.87;9.00;;;;;;;12.14;60.83;96147.66;5053016;28;20229;-83
2021/11/11 10:26:25;;;;;;;11.43;8.93;;;;;;;12.22;60.32;96155.34;5052075;28;20712;-85
2021/11/11 10:28:52;;;;;;;13.90;9.50;;;;;;;12.27;60.24;96150.50;5058165;28;20197;-85
2021/11/11 10:31:20;;;;;;;12.30;8.80;;;;;;;12.29;60.13;96141.59;5071868;28;20224;-82
2021/11/11 10:34:10;;;;;;;10.97;9.20;;;;;;;12.31;60.25;96139.66;5072483;28;20234;-84
2021/11/11 10:36:42;;;;;;;10.17;9.00;;;;;;;12.44;59.96;96126.94;5072576;28;20201;-84
2021/11/11 10:39:15;;;;;;;10.70;8.70;;;;;;;12.55;59.24;96124.91;5072009;28;20200;-84
2021/11/11 10:41:42;;;;;;;11.00;8.63;;;;;;;12.63;58.98;96132.59;5072195;28;20707;-82
2021/11/11 10:44:18;;;;;;;9.50;8.50;;;;;;;12.62;58.65;96131.78;5072056;28;20204;-85
2021/11/11 10:46:49;;;;;;;9.70;8.70;;;;;;;12.68;59.09;96128.50;5071970;28;20212;-84
2021/11/11 10:49:27;;;;;;;10.43;9.27;;;;;;;12.75;59.04;96123.44;5072390;28;20208;-83
2021/11/11 10:51:54;;;;;;;9.90;8.47;;;;;;;12.86;58.77;96129.97;5071374;28;20228;-82
2021/11/11 10:54:21;;;;;;;9.27;8.37;;;;;;;12.99;58.86;96130.13;5071352;28;20224;-81
2021/11/11 10:56:50;;;;;;;10.50;9.00;;;;;;;12.76;59.08;96125.84;5072140;28;20220;-82
2021/11/11 10:59:20;;;;;;;10.40;9.37;;;;;;;12.69;59.40;96131.91;5072924;28;20201;-83
2021/11/11 11:02:00;;;;;;;10.97;8.93;;;;;;;12.76;59.96;96125.03;5071023;28;20189;-84
2021/11/11 11:04:29;;;;;;;11.77;9.07;;;;;;;12.60;59.18;96122.59;5070653;28;20247;-83
2021/11/11 11:07:13;;;;;;;13.73;9.63;;;;;;;12.63;60.07;96125.66;5068206;28;20675;-83
2021/11/11 11:09:40;;;;;;;10.97;8.80;;;;;;;12.89;59.82;96120.06;5072537;28;20213;-82
2021/11/11 11:12:26;;;;;;;11.33;9.67;;;;;;;13.16;58.75;96121.25;5071207;28;20200;-84
2021/11/11 11:14:53;;;;;;;9.97;8.30;;;;;;;13.35;58.40;96119.91;5072164;28;20200;-84
2021/11/11 11:17:20;;;;;;;11.67;8.67;;;;;;;13.45;56.90;96112.66;5071558;28;20556;-84
2021/11/11 11:19:49;;;;;;;9.43;8.50;;;;;;;13.54;57.23;96100.41;5072084;28;20232;-84
2021/11/11 11:22:24;;;;;;;10.33;9.33;;;;;;;13.62;57.29;96102.91;5071789;28;20209;-84
2021/11/11 11:25:02;;;;;;;10.70;9.67;;;;;;;13.72;57.46;96101.63;5071261;28;20220;-84
2021/11/11 11:27:33;;;;;;;11.20;9.20;;;;;;;13.91;57.32;96105.41;5071795;28;20262;-84
2021/11/11 11:30:11;;;;;;;13.50;9.43;;;;;;;14.02;57.25;96102.34;5073928;28;20272;-83
2021/11/11 11:32:41;;;;;;;9.37;8.37;;;;;;;14.11;56.89;96110.75;5071493;28;20212;-86
2021/11/11 11:35:12;;;;;;;11.70;8.97;;;;;;;14.14;56.55;96105.22;5072284;28;20224;-84
2021/11/11 11:37:39;;;;;;;9.67;8.67;;;;;;;14.14;56.54;96105.22;5072174;28;20204;-85
2021/11/11 11:40:09;;;;;;;12.60;9.27;;;;;;;14.13;56.18;96096.66;5084458;28;20216;-82
2021/11/11 11:42:38;;;;;;;10.17;8.90;;;;;;;14.11;55.80;96085.66;5068634;28;20194;-84
2021/11/11 11:45:08;;;;;;;9.67;8.77;;;;;;;14.21;56.04;96092.34;5061174;28;20280;-85
2021/11/11 11:47:39;;;;;;;11.40;9.67;;;;;;;14.06;56.14;96095.78;5072099;28;20204;-83